Terminal Aerodrome Forecast
Issued by NWS Wilmington, NC

Home | Current Version | Previous Version | Text Only | Print | Product List | Glossary On
Versions: 1 2 3 4 5 6 7 8 9 10 11 12 13 14 15 16
780
FTUS42 KILM 300520
TAFMYR
TAF
KMYR 300520Z 3006/0106 13005KT P6SM BKN300
     FM301200 09005KT 5SM BR BKN007
     FM301500 13011KT P6SM BKN025
     FM010300 12014KT P6SM OVC007
      AMD LTD TO CLD VIS AND WIND TIL 301100=

USA.gov is the U.S. government's official web portal to all federal, state and local government web resources and services.